createdAt,value
2019-05-01T00:01:48.005Z,99.90
2019-05-01T00:04:29.168Z,99.90
2019-05-01T00:07:32.720Z,99.90
2019-05-01T00:09:53.573Z,99.90
2019-05-01T00:11:58.425Z,99.90
2019-05-01T00:17:41.138Z,99.90
2019-05-01T00:19:42.579Z,99.90
2019-05-01T00:22:28.985Z,99.90
2019-05-01T00:24:54.866Z,99.90
2019-05-01T00:27:38.703Z,99.90
2019-05-01T00:30:00.091Z,99.90
2019-05-01T00:32:21.585Z,99.90
2019-05-01T00:34:42.516Z,99.90
2019-05-01T00:37:06.024Z,99.90
2019-05-01T00:39:11.988Z,99.90
2019-05-01T00:41:35.751Z,99.90
2019-05-01T00:44:24.310Z,99.90
2019-05-01T00:48:54.402Z,99.90
2019-05-01T00:51:19.041Z,99.90
2019-05-01T00:53:23.318Z,99.90
2019-05-01T00:55:45.218Z,99.90
2019-05-01T00:57:58.992Z,99.90
2019-05-01T01:00:14.533Z,99.90
2019-05-01T01:02:51.419Z,99.90
2019-05-01T01:05:23.997Z,99.90
2019-05-01T01:07:40.620Z,99.90
2019-05-01T01:10:24.865Z,99.90
2019-05-01T01:13:07.502Z,99.90
2019-05-01T01:15:12.081Z,99.90
2019-05-01T01:17:16.144Z,99.90
2019-05-01T01:19:57.300Z,99.90
2019-05-01T01:22:01.459Z,99.90
2019-05-01T01:24:48.475Z,99.90
2019-05-01T01:26:45.792Z,99.90
2019-05-01T01:31:50.517Z,99.90
2019-05-01T01:34:14.781Z,99.90
2019-05-01T01:36:59.109Z,99.90
2019-05-01T01:39:18.246Z,99.90
2019-05-01T01:41:20.082Z,99.90
2019-05-01T01:44:10.689Z,99.90
2019-05-01T01:49:12.267Z,99.90
2019-05-01T01:51:16.381Z,99.90
2019-05-01T01:53:37.137Z,99.90
2019-05-01T01:55:54.629Z,99.90
2019-05-01T01:57:58.855Z,99.90
2019-05-01T02:00:04.628Z,99.90
2019-05-01T02:02:45.665Z,99.90
2019-05-01T02:05:23.563Z,99.90
2019-05-01T02:07:27.715Z,99.90
2019-05-01T02:09:32.092Z,99.90
2019-05-01T02:11:36.252Z,99.90
2019-05-01T02:13:49.942Z,99.90
2019-05-01T02:15:54.029Z,99.90
2019-05-01T02:18:02.367Z,99.90
2019-05-01T02:20:04.861Z,99.90
2019-05-01T02:22:08.873Z,99.90
2019-05-01T02:24:12.985Z,99.90
2019-05-01T02:26:19.399Z,99.90
2019-05-01T02:28:39.869Z,99.90
2019-05-01T02:30:46.787Z,99.90
2019-05-01T02:32:52.431Z,99.90
2019-05-01T02:34:58.197Z,99.90
2019-05-01T02:37:04.033Z,99.90
2019-05-01T02:39:10.211Z,99.90
2019-05-01T02:41:16.737Z,99.90
2019-05-01T02:43:23.358Z,99.90
2019-05-01T02:45:28.270Z,99.90
2019-05-01T02:47:35.169Z,99.90
2019-05-01T02:49:46.716Z,99.90
2019-05-01T02:51:51.862Z,99.90
2019-05-01T02:53:55.997Z,99.90
2019-05-01T02:56:34.822Z,99.90
2019-05-01T02:58:40.457Z,99.90
2019-05-01T03:01:17.210Z,99.90
2019-05-01T03:03:17.621Z,99.90
2019-05-01T03:05:21.774Z,99.90
2019-05-01T03:07:28.343Z,99.90
2019-05-01T03:09:33.092Z,99.90
2019-05-01T03:12:07.560Z,99.90
2019-05-01T03:14:36.560Z,99.90
2019-05-01T03:20:16.490Z,99.90
2019-05-01T03:22:55.030Z,99.90
2019-05-01T03:25:05.311Z,99.90
2019-05-01T03:27:39.597Z,99.90
2019-05-01T03:29:50.958Z,99.90
2019-05-01T03:32:19.385Z,99.90
2019-05-01T03:34:56.942Z,99.90
2019-05-01T03:37:41.248Z,99.90
2019-05-01T03:40:12.483Z,99.90
2019-05-01T03:42:35.822Z,99.90
2019-05-01T03:45:21.540Z,99.90
2019-05-01T03:47:53.265Z,99.90
2019-05-01T03:50:34.913Z,99.90
2019-05-01T03:53:31.067Z,99.90
2019-05-01T03:55:41.701Z,99.90
2019-05-01T03:58:15.406Z,99.90
2019-05-01T04:01:10.433Z,99.90
2019-05-01T04:09:30.943Z,99.90
2019-05-01T04:11:58.885Z,99.90
2019-05-01T04:14:42.485Z,99.90
2019-05-01T04:17:18.107Z,99.90
2019-05-01T04:20:19.863Z,99.90
2019-05-01T04:23:22.179Z,99.90
2019-05-01T04:25:29.156Z,99.90
2019-05-01T04:28:04.159Z,99.90
2019-05-01T04:31:09.411Z,99.90
2019-05-01T04:33:48.727Z,99.90
2019-05-01T04:36:31.998Z,99.90
2019-05-01T04:38:31.614Z,99.90
2019-05-01T04:40:35.847Z,99.90
2019-05-01T04:42:40.182Z,99.90
2019-05-01T04:44:44.557Z,99.90
2019-05-01T04:46:49.639Z,99.90
2019-05-01T04:48:53.934Z,99.90
2019-05-01T04:50:58.018Z,99.90
2019-05-01T04:53:02.201Z,99.90
2019-05-01T04:55:06.850Z,99.90
2019-05-01T04:57:11.550Z,99.90
2019-05-01T05:01:47.792Z,99.90
2019-05-01T05:06:54.618Z,99.90
2019-05-01T05:35:42.711Z,99.90
2019-05-01T05:38:42.442Z,99.90
2019-05-01T05:41:35.019Z,99.90
2019-05-01T05:43:39.388Z,99.90
2019-05-01T05:45:44.143Z,99.90
2019-05-01T05:47:48.481Z,99.90
2019-05-01T05:49:52.836Z,99.90
2019-05-01T05:56:08.777Z,99.90
2019-05-01T05:58:52.087Z,99.90
2019-05-01T06:01:40.276Z,99.90
2019-05-01T06:04:35.735Z,99.90
2019-05-01T06:17:50.070Z,99.90
2019-05-01T06:21:21.393Z,99.90
2019-05-01T06:37:15.861Z,99.90
2019-05-01T06:40:18.781Z,99.90
2019-05-01T06:43:08.208Z,99.90
2019-05-01T06:49:07.538Z,99.90
2019-05-01T06:51:26.390Z,99.90
2019-05-01T06:54:11.091Z,99.90
2019-05-01T06:56:37.216Z,99.90
2019-05-01T07:02:16.321Z,99.90
2019-05-01T07:04:42.999Z,99.90
2019-05-01T07:07:06.798Z,99.90
2019-05-01T07:11:23.872Z,99.90
2019-05-01T07:13:28.322Z,99.90
2019-05-01T07:16:22.369Z,99.90
2019-05-01T07:19:40.313Z,99.90
2019-05-01T07:22:22.961Z,99.90
2019-05-01T07:25:05.941Z,99.90
2019-05-01T07:27:25.090Z,99.90
2019-05-01T07:30:15.898Z,99.90
2019-05-01T07:32:54.331Z,99.90
2019-05-01T07:35:02.170Z,99.90
2019-05-01T07:37:05.357Z,99.90
2019-05-01T07:39:15.916Z,99.90
2019-05-01T07:41:42.114Z,99.90
2019-05-01T07:44:23.811Z,99.90
2019-05-01T07:47:17.913Z,99.90
2019-05-01T07:50:12.620Z,99.90
2019-05-01T07:52:22.247Z,99.90
2019-05-01T07:54:47.251Z,99.90
2019-05-01T07:57:22.973Z,99.90
2019-05-01T08:00:10.806Z,99.90
2019-05-01T08:02:33.044Z,99.90
2019-05-01T08:04:59.843Z,99.90
2019-05-01T08:07:22.673Z,99.90
2019-05-01T08:09:51.588Z,99.90
2019-05-01T08:12:39.272Z,99.90
2019-05-01T08:15:27.684Z,99.90
2019-05-01T08:18:19.611Z,99.90
2019-05-01T08:21:08.385Z,99.90
2019-05-01T08:23:42.650Z,99.90
2019-05-01T08:26:14.483Z,99.90
2019-05-01T08:28:42.631Z,99.90
2019-05-01T08:31:06.542Z,99.90
2019-05-01T08:33:31.705Z,99.90
2019-05-01T08:35:43.419Z,99.90
2019-05-01T08:41:03.275Z,99.90
2019-05-01T08:43:40.207Z,99.90
2019-05-01T08:46:02.101Z,99.90
2019-05-01T08:48:42.352Z,99.90
2019-05-01T08:51:07.349Z,99.90
2019-05-01T08:53:42.201Z,99.90
2019-05-01T08:56:38.522Z,99.90
2019-05-01T08:59:49.305Z,99.90
2019-05-01T09:02:18.160Z,99.90
2019-05-01T09:05:02.137Z,99.90
2019-05-01T09:07:24.001Z,99.90
2019-05-01T09:09:53.253Z,99.90
2019-05-01T09:12:13.598Z,99.90
2019-05-01T09:14:59.093Z,99.90
2019-05-01T09:17:40.904Z,99.90
2019-05-01T09:20:00.902Z,99.90
2019-05-01T09:22:17.112Z,99.90
2019-05-01T09:24:42.045Z,99.90
2019-05-01T09:27:07.285Z,99.90
2019-05-01T09:29:40.524Z,99.90
2019-05-01T09:32:10.081Z,99.90
2019-05-01T09:34:13.961Z,99.90
2019-05-01T09:39:26.922Z,98.90
2019-05-01T09:41:38.029Z,98.60
2019-05-01T09:43:37.453Z,97.90
2019-05-01T09:45:56.249Z,97.50
2019-05-01T09:48:03.695Z,95.00
2019-05-01T09:50:08.224Z,94.60
2019-05-01T09:52:49.087Z,93.50
2019-05-01T09:55:31.245Z,92.30
2019-05-01T09:57:57.239Z,92.20
2019-05-01T10:00:01.697Z,90.90
2019-05-01T10:02:20.035Z,88.90
2019-05-01T10:04:25.504Z,88.10
2019-05-01T10:06:30.122Z,87.10
2019-05-01T10:08:41.790Z,85.70
2019-05-01T10:11:04.823Z,81.60
2019-05-01T10:13:43.602Z,82.90
2019-05-01T10:15:47.226Z,80.50
2019-05-01T10:17:51.352Z,82.70
2019-05-01T10:20:29.590Z,85.00
2019-05-01T10:22:59.488Z,85.60
2019-05-01T10:25:25.396Z,83.40
2019-05-01T10:28:02.048Z,80.20
2019-05-01T10:30:36.371Z,79.00
2019-05-01T10:33:10.272Z,79.70
2019-05-01T10:35:42.305Z,78.30
2019-05-01T10:38:28.030Z,78.80
2019-05-01T10:40:26.978Z,79.10
2019-05-01T10:42:30.265Z,78.60
2019-05-01T10:44:34.756Z,77.60
2019-05-01T10:47:03.674Z,79.40
2019-05-01T10:49:37.681Z,80.80
2019-05-01T10:51:39.299Z,82.40
2019-05-01T10:53:43.395Z,82.90
2019-05-01T10:55:47.879Z,85.00
2019-05-01T10:57:52.173Z,86.10
2019-05-01T11:00:49.873Z,86.50
2019-05-01T11:02:57.728Z,86.70
2019-05-01T11:08:11.249Z,86.10
2019-05-01T11:10:47.512Z,85.50
2019-05-01T11:13:44.107Z,86.60
2019-05-01T11:15:48.621Z,88.60
2019-05-01T11:17:52.949Z,90.50
2019-05-01T11:20:11.497Z,91.20
2019-05-01T11:22:26.143Z,91.80
2019-05-01T11:24:30.931Z,91.70
2019-05-01T11:26:55.025Z,91.80
2019-05-01T11:29:15.485Z,92.70
2019-05-01T11:31:50.469Z,92.80
2019-05-01T11:34:19.920Z,92.60
2019-05-01T11:36:37.568Z,93.00
2019-05-01T11:39:05.544Z,93.40
2019-05-01T11:41:14.619Z,94.40
2019-05-01T11:46:36.175Z,94.30
2019-05-01T11:52:00.844Z,94.10
2019-05-01T11:54:58.179Z,94.10
2019-05-01T12:38:02.934Z,83.10
2019-05-01T12:40:07.427Z,83.00
2019-05-01T12:42:30.611Z,83.00
2019-05-01T12:44:23.830Z,81.60
2019-05-01T12:47:13.462Z,81.20
2019-05-01T12:49:26.609Z,78.30
2019-05-01T12:52:32.931Z,79.80
2019-05-01T12:55:36.774Z,80.20
2019-05-01T12:58:02.153Z,78.00
2019-05-01T13:03:46.049Z,77.00
2019-05-01T13:05:50.255Z,77.40
2019-05-01T13:08:44.399Z,79.30
2019-05-01T13:10:55.103Z,78.50
2019-05-01T13:16:11.301Z,79.40
2019-05-01T13:19:58.995Z,78.00
2019-05-01T13:21:02.439Z,78.70
2019-05-01T13:24:19.828Z,78.10
2019-05-01T13:26:38.415Z,77.20
2019-05-01T13:28:49.566Z,75.80
2019-05-01T13:31:00.550Z,76.80
2019-05-01T13:33:04.768Z,76.00
2019-05-01T13:35:48.153Z,75.70
2019-05-01T13:37:51.313Z,76.40
2019-05-01T13:40:03.692Z,76.90
2019-05-01T13:42:09.075Z,76.60
2019-05-01T13:44:24.630Z,77.40
2019-05-01T13:46:23.849Z,77.40
2019-05-01T13:48:28.425Z,77.10
2019-05-01T13:54:31.311Z,76.20
2019-05-01T13:57:45.062Z,76.60
2019-05-01T14:00:33.157Z,78.80
2019-05-01T14:03:24.932Z,79.40
2019-05-01T14:06:30.656Z,80.30
2019-05-01T14:08:34.864Z,80.00
2019-05-01T14:11:16.355Z,80.60
2019-05-01T14:13:43.152Z,81.20
2019-05-01T14:19:32.594Z,80.80
2019-05-01T14:22:38.896Z,81.60
2019-05-01T14:25:40.834Z,82.00
2019-05-01T14:28:43.427Z,81.00
2019-05-01T14:32:07.892Z,81.10
2019-05-01T14:34:12.043Z,79.40
2019-05-01T14:37:05.108Z,79.10
2019-05-01T14:42:48.872Z,78.80
2019-05-01T14:52:03.773Z,77.00
2019-05-01T15:20:12.053Z,74.60
2019-05-01T15:23:29.649Z,76.10
2019-05-01T15:26:13.352Z,75.30
2019-05-01T15:32:14.955Z,75.00
2019-05-01T16:05:47.283Z,74.40
2019-05-01T16:38:25.694Z,79.70
2019-05-01T16:42:07.428Z,81.90
2019-05-01T16:44:31.853Z,80.60
2019-05-01T17:02:40.988Z,79.80
2019-05-01T17:05:58.700Z,81.00
2019-05-01T17:39:44.185Z,84.00
2019-05-01T17:42:37.651Z,84.00
2019-05-01T17:44:59.647Z,84.00
2019-05-01T17:47:37.661Z,84.10
2019-05-01T17:50:28.906Z,85.20
2019-05-01T17:56:28.822Z,86.40
2019-05-01T17:58:58.883Z,87.10
2019-05-01T18:02:10.174Z,88.90
2019-05-01T18:04:41.047Z,90.20
2019-05-01T18:09:41.181Z,91.20
2019-05-01T18:12:33.701Z,91.90
2019-05-01T18:14:54.580Z,93.40
2019-05-01T18:17:40.399Z,94.80
2019-05-01T18:20:41.210Z,94.70
2019-05-01T18:30:05.400Z,98.50
2019-05-01T18:33:00.149Z,99.80
2019-05-01T18:35:34.426Z,99.90
2019-05-01T18:41:12.537Z,99.90
2019-05-01T18:43:51.868Z,99.90
2019-05-01T18:46:24.093Z,99.90
2019-05-01T18:48:57.145Z,99.90
2019-05-01T18:51:46.946Z,99.90
2019-05-01T18:57:49.655Z,99.90
2019-05-01T19:00:13.004Z,99.90
2019-05-01T19:02:59.683Z,99.90
2019-05-01T19:05:14.429Z,99.90
2019-05-01T19:07:39.531Z,99.90
2019-05-01T19:10:13.475Z,99.90
2019-05-01T19:12:48.996Z,99.90
2019-05-01T19:15:17.416Z,99.90
2019-05-01T19:17:43.166Z,99.90
2019-05-01T19:20:31.696Z,99.90
2019-05-01T19:23:27.607Z,99.90
2019-05-01T19:26:06.594Z,99.90
2019-05-01T19:28:51.334Z,99.90
2019-05-01T19:31:43.897Z,99.90
2019-05-01T19:33:54.302Z,99.90
2019-05-01T19:36:59.294Z,99.90
2019-05-01T19:39:22.665Z,99.90
2019-05-01T19:48:00.029Z,99.90
2019-05-01T19:53:02.862Z,99.90
2019-05-01T19:55:46.506Z,99.90
2019-05-01T19:58:12.073Z,99.90
2019-05-01T20:00:32.845Z,99.90
2019-05-01T20:03:15.856Z,99.90
2019-05-01T20:05:49.896Z,99.90
2019-05-01T20:11:31.846Z,99.90
2019-05-01T20:14:07.142Z,99.90
2019-05-01T20:16:35.531Z,99.90
2019-05-01T20:19:15.135Z,99.90
2019-05-01T20:26:14.183Z,99.90
2019-05-01T20:28:52.974Z,99.90
2019-05-01T20:31:45.784Z,99.90
2019-05-01T20:34:21.399Z,99.90
2019-05-01T20:37:02.680Z,99.90
2019-05-01T20:39:39.587Z,99.90
2019-05-01T20:42:31.999Z,99.90
2019-05-01T20:45:08.398Z,99.90
2019-05-01T20:47:45.537Z,99.90
2019-05-01T20:50:02.395Z,99.90
2019-05-01T20:56:51.641Z,99.90
2019-05-01T20:59:17.064Z,99.90
2019-05-01T21:01:28.157Z,99.90
2019-05-01T21:03:45.487Z,99.90
2019-05-01T21:06:43.651Z,99.90
2019-05-01T21:09:46.756Z,99.90
2019-05-01T21:12:26.421Z,99.90
2019-05-01T21:15:01.062Z,99.90
2019-05-01T21:17:25.666Z,99.90
2019-05-01T21:19:51.449Z,99.90
2019-05-01T21:22:33.302Z,99.90
2019-05-01T21:25:14.908Z,99.90
2019-05-01T21:28:01.488Z,99.90
2019-05-01T21:30:45.846Z,99.90
2019-05-01T21:35:48.368Z,99.90
2019-05-01T21:38:36.031Z,99.90
2019-05-01T21:43:57.810Z,99.90
2019-05-01T21:46:22.730Z,99.90
2019-05-01T21:51:08.732Z,99.90
2019-05-01T21:53:42.785Z,99.90
2019-05-01T21:56:06.195Z,99.90
2019-05-01T21:58:59.533Z,99.90
2019-05-01T22:01:42.188Z,99.90
2019-05-01T22:04:09.789Z,99.90
2019-05-01T22:06:39.377Z,99.90
2019-05-01T22:09:15.171Z,99.90
2019-05-01T22:11:55.240Z,99.90
2019-05-01T22:14:07.589Z,99.90
2019-05-01T22:16:32.663Z,99.90
2019-05-01T22:18:56.657Z,99.90
2019-05-01T22:21:46.981Z,99.90
2019-05-01T22:24:29.929Z,99.90
2019-05-01T22:27:23.689Z,99.90
2019-05-01T22:30:16.501Z,99.90
2019-05-01T22:32:34.078Z,99.90
2019-05-01T22:35:30.773Z,99.90
2019-05-01T22:38:03.071Z,99.90
2019-05-01T22:40:15.853Z,99.90
2019-05-01T22:43:02.347Z,99.90
2019-05-01T22:45:17.492Z,99.90
2019-05-01T22:47:32.017Z,99.90
2019-05-01T22:49:40.062Z,99.90
2019-05-01T22:52:02.208Z,99.90
2019-05-01T22:54:23.522Z,99.90
2019-05-01T22:59:57.396Z,99.90
2019-05-01T23:02:24.236Z,99.90
2019-05-01T23:04:56.842Z,99.90
2019-05-01T23:07:34.558Z,99.90
2019-05-01T23:10:03.318Z,99.90
2019-05-01T23:12:17.372Z,99.90
2019-05-01T23:15:05.394Z,99.90
2019-05-01T23:18:15.242Z,99.90
2019-05-01T23:20:18.964Z,99.90
2019-05-01T23:22:43.427Z,99.90
2019-05-01T23:25:01.701Z,99.90
2019-05-01T23:27:05.744Z,99.90
2019-05-01T23:29:09.767Z,99.90
2019-05-01T23:31:20.374Z,99.90
2019-05-01T23:33:45.865Z,99.90
2019-05-01T23:35:54.798Z,99.90
2019-05-01T23:38:13.756Z,99.90
2019-05-01T23:40:19.230Z,99.90
2019-05-01T23:42:43.853Z,99.90
2019-05-01T23:44:54.701Z,99.90
2019-05-01T23:47:20.612Z,99.90
2019-05-01T23:49:30.548Z,99.90
2019-05-01T23:51:50.527Z,99.90
2019-05-01T23:54:23.828Z,99.90
2019-05-01T23:56:41.586Z,99.90
2019-05-01T23:58:49.088Z,99.90
